Terminal Aerodrome Forecast
Issued by NWS Grand Forks, ND

Home | Current Version | Previous Version | Graphics & Text | Print | Product List | Glossary On
Versions: 1 2 3 4 5 6 7 8 9 10 11 12 13 14 15 16 17 18 19 20 21
000
FTUS43 KFGF 310520
TAFGFK
TAF
KGFK 310520Z 3106/0106 17013KT P6SM BKN250
     FM311500 20010KT P6SM BKN120
     FM312100 26011KT P6SM SCT250
     FM010200 VRB05KT P6SM SKC=

USA.gov is the U.S. government's official web portal to all federal, state and local government web resources and services.